createdAt,value
2023-01-29T00:01:19.689Z,5.54
2023-01-29T00:03:46.209Z,5.53
2023-01-29T00:06:12.832Z,5.55
2023-01-29T00:08:39.451Z,5.56
2023-01-29T00:11:08.280Z,5.52
2023-01-29T00:13:34.873Z,5.56
2023-01-29T00:16:01.679Z,5.56
2023-01-29T00:18:29.066Z,5.55
2023-01-29T00:20:55.848Z,5.53
2023-01-29T00:23:22.922Z,5.53
2023-01-29T00:25:49.434Z,5.52
2023-01-29T00:28:15.932Z,5.52
2023-01-29T00:30:43.374Z,5.52
2023-01-29T00:33:09.829Z,5.51
2023-01-29T00:35:39.960Z,5.49
2023-01-29T00:38:06.566Z,5.49
2023-01-29T00:40:33.045Z,5.49
2023-01-29T00:42:59.530Z,5.49
2023-01-29T00:45:25.950Z,5.48
2023-01-29T00:47:52.456Z,5.49
2023-01-29T00:50:19.359Z,5.49
2023-01-29T00:52:46.101Z,5.47
2023-01-29T00:55:12.571Z,5.49
2023-01-29T00:57:39.165Z,5.50
2023-01-29T01:00:09.005Z,5.51
2023-01-29T01:02:35.509Z,5.49
2023-01-29T01:05:04.539Z,5.51
2023-01-29T01:07:31.014Z,5.51
2023-01-29T01:09:57.678Z,5.51
2023-01-29T01:12:24.146Z,5.51
2023-01-29T01:14:50.616Z,5.51
2023-01-29T01:17:17.361Z,5.51
2023-01-29T01:19:43.920Z,5.51
2023-01-29T01:22:10.724Z,5.52
2023-01-29T01:24:37.998Z,5.51
2023-01-29T01:27:04.675Z,5.53
2023-01-29T01:29:31.481Z,5.52
2023-01-29T01:31:58.198Z,5.52
2023-01-29T01:34:24.996Z,5.53
2023-01-29T01:36:51.461Z,5.52
2023-01-29T01:39:17.909Z,5.52
2023-01-29T01:41:44.875Z,5.53
2023-01-29T01:44:49.079Z,5.51
2023-01-29T01:47:16.859Z,5.52
2023-01-29T01:49:44.929Z,5.53
2023-01-29T01:52:13.501Z,5.53
2023-01-29T01:54:40.149Z,5.52
2023-01-29T01:57:12.009Z,5.52
2023-01-29T01:59:40.396Z,5.54
2023-01-29T02:02:07.608Z,5.54
2023-01-29T02:04:34.131Z,5.54
2023-01-29T02:07:04.823Z,5.53
2023-01-29T02:09:49.913Z,5.52
2023-01-29T02:12:17.405Z,5.51
2023-01-29T02:14:44.767Z,5.51
2023-01-29T02:17:15.374Z,5.49
2023-01-29T02:20:05.153Z,5.50
2023-01-29T02:22:54.675Z,5.48
2023-01-29T02:25:46.720Z,5.48
2023-01-29T02:28:19.263Z,5.46
2023-01-29T02:31:04.497Z,5.45
2023-01-29T02:33:42.021Z,5.39
2023-01-29T02:36:20.018Z,5.44
2023-01-29T02:39:12.308Z,5.36
2023-01-29T02:41:45.766Z,5.42
2023-01-29T02:44:30.253Z,5.44
2023-01-29T02:47:21.752Z,5.40
2023-01-29T02:49:59.670Z,5.47
2023-01-29T02:52:59.552Z,5.46
2023-01-29T02:55:43.839Z,5.49
2023-01-29T02:58:38.335Z,5.48
2023-01-29T03:01:12.383Z,5.44
2023-01-29T03:03:43.942Z,5.51
2023-01-29T03:06:23.095Z,5.52
2023-01-29T03:09:01.076Z,5.52
2023-01-29T03:11:34.757Z,5.49
2023-01-29T03:14:20.438Z,5.52
2023-01-29T03:16:53.636Z,5.53
2023-01-29T03:19:35.352Z,5.50
2023-01-29T03:22:07.457Z,5.53
2023-01-29T03:24:55.826Z,5.52
2023-01-29T03:27:30.438Z,5.52
2023-01-29T03:29:59.157Z,5.52
2023-01-29T03:32:35.590Z,5.52
2023-01-29T03:35:05.083Z,5.52
2023-01-29T03:37:41.761Z,5.52
2023-01-29T03:40:09.694Z,5.52
2023-01-29T03:42:57.940Z,5.53
2023-01-29T03:45:39.491Z,5.48
2023-01-29T03:48:24.782Z,5.50
2023-01-29T03:51:01.809Z,5.46
2023-01-29T03:53:47.358Z,5.47
2023-01-29T03:56:33.874Z,5.45
2023-01-29T03:59:40.946Z,5.44
2023-01-29T04:02:35.725Z,5.42
2023-01-29T04:05:15.857Z,5.34
2023-01-29T04:07:59.778Z,5.38
2023-01-29T04:10:29.358Z,5.32
2023-01-29T04:13:07.545Z,5.36
2023-01-29T04:15:40.890Z,5.34
2023-01-29T04:18:07.738Z,5.33
2023-01-29T04:20:47.188Z,5.32
2023-01-29T04:23:22.814Z,5.28
2023-01-29T04:26:25.902Z,5.28
2023-01-29T04:29:24.129Z,5.27
2023-01-29T04:32:00.039Z,5.28
2023-01-29T04:34:45.965Z,5.27
2023-01-29T04:37:39.693Z,5.27
2023-01-29T04:40:44.524Z,5.26
2023-01-29T04:43:21.641Z,5.21
2023-01-29T04:46:10.192Z,5.24
2023-01-29T04:48:53.358Z,5.21
2023-01-29T04:51:32.367Z,5.19
2023-01-29T04:54:26.542Z,5.19
2023-01-29T04:57:05.044Z,5.20
2023-01-29T04:59:41.885Z,5.18
2023-01-29T05:02:11.688Z,5.12
2023-01-29T05:04:41.315Z,5.15
2023-01-29T05:07:12.973Z,5.16
2023-01-29T05:09:39.951Z,5.17
2023-01-29T05:12:09.791Z,5.16
2023-01-29T05:14:39.481Z,5.11
2023-01-29T05:17:13.758Z,5.11
2023-01-29T05:19:40.295Z,5.14
2023-01-29T05:22:10.317Z,5.10
2023-01-29T05:24:38.210Z,5.15
2023-01-29T05:27:05.171Z,5.15
2023-01-29T05:29:31.698Z,5.14
2023-01-29T05:31:58.144Z,5.15
2023-01-29T05:34:24.804Z,5.14
2023-01-29T05:36:51.365Z,5.14
2023-01-29T05:39:17.857Z,5.16
2023-01-29T05:41:44.312Z,5.17
2023-01-29T05:44:11.086Z,5.17
2023-01-29T05:46:38.416Z,5.18
2023-01-29T05:49:05.620Z,5.17
2023-01-29T05:51:32.242Z,5.18
2023-01-29T05:53:58.704Z,5.16
2023-01-29T05:56:25.174Z,5.16
2023-01-29T05:58:51.668Z,5.16
2023-01-29T06:01:21.118Z,5.10
2023-01-29T06:03:48.035Z,5.15
2023-01-29T06:06:15.061Z,5.15
2023-01-29T06:08:41.640Z,5.15
2023-01-29T06:11:10.526Z,5.09
2023-01-29T06:13:37.427Z,5.14
2023-01-29T06:16:08.833Z,5.13
2023-01-29T06:18:38.732Z,5.14
2023-01-29T06:21:06.995Z,5.14
2023-01-29T06:23:33.888Z,5.13
2023-01-29T06:26:06.131Z,5.10
2023-01-29T06:28:32.714Z,5.13
2023-01-29T06:31:20.957Z,5.15
2023-01-29T06:33:47.852Z,5.13
2023-01-29T06:36:14.329Z,5.12
2023-01-29T06:38:40.851Z,5.10
2023-01-29T06:41:17.842Z,5.06
2023-01-29T06:43:45.415Z,5.09
2023-01-29T06:46:11.928Z,5.07
2023-01-29T06:48:38.420Z,5.07
2023-01-29T06:51:07.362Z,5.05
2023-01-29T06:53:37.271Z,5.01
2023-01-29T06:56:04.719Z,4.99
2023-01-29T06:58:31.266Z,4.95
2023-01-29T07:01:08.606Z,4.92
2023-01-29T07:03:35.135Z,4.90
2023-01-29T07:06:02.033Z,4.87
2023-01-29T07:08:28.562Z,4.88
2023-01-29T07:11:01.802Z,4.87
2023-01-29T07:13:28.637Z,4.89
2023-01-29T07:15:58.772Z,4.90
2023-01-29T07:18:25.253Z,4.89
2023-01-29T07:20:51.881Z,4.89
2023-01-29T07:23:18.360Z,4.89
2023-01-29T07:25:44.881Z,4.88
2023-01-29T07:28:11.394Z,4.88
2023-01-29T07:30:38.111Z,4.89
2023-01-29T07:33:07.618Z,4.88
2023-01-29T07:35:42.849Z,4.89
2023-01-29T07:38:11.329Z,4.90
2023-01-29T07:40:38.925Z,4.90
2023-01-29T07:43:07.198Z,4.90
2023-01-29T07:45:35.958Z,4.89
2023-01-29T07:48:03.214Z,4.87
2023-01-29T07:50:29.663Z,4.88
2023-01-29T07:52:56.204Z,4.88
2023-01-29T07:55:23.516Z,4.89
2023-01-29T07:58:03.091Z,4.91
2023-01-29T08:00:31.218Z,4.88
2023-01-29T08:03:05.590Z,4.92
2023-01-29T08:05:32.657Z,4.94
2023-01-29T08:08:06.646Z,4.92
2023-01-29T08:10:35.048Z,4.99
2023-01-29T08:13:02.522Z,4.97
2023-01-29T08:15:29.632Z,4.99
2023-01-29T08:17:58.246Z,5.00
2023-01-29T08:20:25.672Z,5.02
2023-01-29T08:23:06.417Z,5.00
2023-01-29T08:25:34.381Z,5.04
2023-01-29T08:28:01.332Z,5.06
2023-01-29T08:30:30.177Z,5.03
2023-01-29T08:32:56.689Z,5.09
2023-01-29T08:35:23.974Z,5.10
2023-01-29T08:38:09.402Z,5.12
2023-01-29T08:40:35.886Z,5.15
2023-01-29T08:43:06.292Z,5.15
2023-01-29T08:45:35.939Z,5.20
2023-01-29T08:48:02.493Z,5.21
2023-01-29T08:50:29.017Z,5.23
2023-01-29T08:52:59.400Z,5.25
2023-01-29T08:55:26.837Z,5.29
2023-01-29T08:57:53.398Z,5.30
2023-01-29T09:00:20.393Z,5.33
2023-01-29T09:02:46.905Z,5.37
2023-01-29T09:05:13.453Z,5.42
2023-01-29T09:07:39.928Z,5.46
2023-01-29T09:10:07.076Z,5.52
2023-01-29T09:12:33.722Z,5.56
2023-01-29T09:15:00.187Z,5.60
2023-01-29T09:17:26.659Z,5.61
2023-01-29T09:19:53.176Z,5.66
2023-01-29T09:22:20.256Z,5.71
2023-01-29T09:24:46.745Z,5.74
2023-01-29T09:27:13.278Z,5.82
2023-01-29T09:29:39.744Z,5.88
2023-01-29T09:32:07.067Z,5.94
2023-01-29T09:34:33.970Z,6.00
2023-01-29T09:37:00.508Z,6.07
2023-01-29T09:39:26.975Z,6.12
2023-01-29T09:42:03.148Z,6.16
2023-01-29T09:44:48.548Z,6.23
2023-01-29T09:47:17.631Z,6.30
2023-01-29T09:49:58.795Z,6.28
2023-01-29T09:52:36.699Z,6.40
2023-01-29T09:55:10.540Z,6.49
2023-01-29T09:57:53.325Z,6.69
2023-01-29T10:00:54.874Z,6.78
2023-01-29T10:03:45.685Z,6.88
2023-01-29T10:06:25.272Z,6.88
2023-01-29T10:09:22.674Z,6.95
2023-01-29T10:12:01.052Z,6.96
2023-01-29T10:14:27.519Z,6.97
2023-01-29T10:17:09.474Z,6.95
2023-01-29T10:20:03.167Z,6.86
2023-01-29T10:22:39.310Z,6.87
2023-01-29T10:25:10.703Z,6.86
2023-01-29T10:27:41.392Z,6.78
2023-01-29T10:30:20.836Z,6.79
2023-01-29T10:32:49.126Z,6.75
2023-01-29T10:35:33.657Z,6.74
2023-01-29T10:38:14.023Z,6.78
2023-01-29T10:40:49.096Z,6.81
2023-01-29T10:43:40.750Z,6.83
2023-01-29T10:46:22.446Z,6.85
2023-01-29T10:49:08.215Z,6.89
2023-01-29T10:51:56.555Z,6.91
2023-01-29T10:54:46.153Z,6.95
2023-01-29T10:57:46.549Z,6.99
2023-01-29T11:00:22.483Z,7.07
2023-01-29T11:02:50.894Z,7.10
2023-01-29T11:05:26.511Z,7.14
2023-01-29T11:08:03.627Z,7.16
2023-01-29T11:10:37.285Z,7.19
2023-01-29T11:13:05.255Z,7.17
2023-01-29T11:15:33.243Z,7.18
2023-01-29T11:18:04.022Z,7.27
2023-01-29T11:20:32.570Z,7.35
2023-01-29T11:22:59.117Z,7.42
2023-01-29T11:25:25.651Z,7.52
2023-01-29T11:27:57.569Z,7.53
2023-01-29T11:30:41.376Z,7.67
2023-01-29T11:33:23.951Z,7.72
2023-01-29T11:35:50.616Z,7.76
2023-01-29T11:38:19.019Z,7.76
2023-01-29T11:40:45.932Z,7.75
2023-01-29T11:43:41.815Z,7.74
2023-01-29T11:46:13.950Z,7.69
2023-01-29T11:48:49.262Z,7.71
2023-01-29T11:51:28.466Z,7.75
2023-01-29T11:53:58.492Z,7.75
2023-01-29T11:56:42.208Z,7.80
2023-01-29T11:59:39.947Z,7.84
2023-01-29T12:02:30.893Z,7.88
2023-01-29T12:05:04.430Z,7.93
2023-01-29T12:07:32.022Z,7.99
2023-01-29T12:09:59.402Z,8.08
2023-01-29T12:12:41.370Z,8.20
2023-01-29T12:15:18.601Z,8.34
2023-01-29T12:17:52.241Z,8.54
2023-01-29T12:20:26.075Z,8.83
2023-01-29T12:23:18.516Z,9.00
2023-01-29T12:26:04.613Z,9.07
2023-01-29T12:28:46.257Z,9.10
2023-01-29T12:31:29.630Z,9.04
2023-01-29T12:34:25.603Z,9.06
2023-01-29T12:37:04.621Z,8.99
2023-01-29T12:39:31.061Z,9.04
2023-01-29T12:42:05.014Z,9.13
2023-01-29T12:44:39.653Z,9.17
2023-01-29T12:47:11.168Z,9.33
2023-01-29T12:49:39.619Z,9.48
2023-01-29T12:52:15.550Z,9.54
2023-01-29T12:54:58.070Z,9.53
2023-01-29T12:57:48.570Z,9.44
2023-01-29T13:00:22.268Z,9.38
2023-01-29T13:03:01.593Z,9.37
2023-01-29T13:05:38.950Z,9.33
2023-01-29T13:08:40.815Z,9.26
2023-01-29T13:11:15.964Z,9.24
2023-01-29T13:13:52.907Z,9.16
2023-01-29T13:16:25.736Z,9.15
2023-01-29T13:19:02.244Z,9.17
2023-01-29T13:21:37.137Z,9.17
2023-01-29T13:24:11.229Z,9.24
2023-01-29T13:26:39.290Z,9.31
2023-01-29T13:29:05.924Z,9.38
2023-01-29T13:31:35.297Z,9.44
2023-01-29T13:34:27.749Z,9.53
2023-01-29T13:37:01.173Z,9.60
2023-01-29T13:39:31.819Z,9.72
2023-01-29T13:42:00.908Z,9.77
2023-01-29T13:44:37.628Z,9.78
2023-01-29T13:47:10.248Z,9.84
2023-01-29T13:49:47.177Z,9.85
2023-01-29T13:52:22.279Z,9.87
2023-01-29T13:54:58.876Z,9.88
2023-01-29T13:57:48.113Z,9.88
2023-01-29T14:00:20.621Z,9.89
2023-01-29T14:03:07.907Z,9.92
2023-01-29T14:05:44.651Z,9.94
2023-01-29T14:08:14.150Z,10.01
2023-01-29T14:10:42.659Z,10.03
2023-01-29T14:13:18.235Z,10.13
2023-01-29T14:15:50.080Z,10.15
2023-01-29T14:18:22.020Z,10.17
2023-01-29T14:20:48.459Z,10.26
2023-01-29T14:23:24.128Z,10.28
2023-01-29T14:25:51.095Z,10.30
2023-01-29T14:28:23.724Z,10.27
2023-01-29T14:30:51.678Z,10.27
2023-01-29T14:33:35.129Z,10.25
2023-01-29T14:36:06.289Z,10.20
2023-01-29T14:38:33.709Z,10.14
2023-01-29T14:41:27.080Z,10.07
2023-01-29T14:44:32.031Z,10.04
2023-01-29T14:46:58.622Z,10.10
2023-01-29T14:49:53.071Z,10.18
2023-01-29T14:52:24.423Z,10.33
2023-01-29T14:54:53.573Z,10.40
2023-01-29T14:57:20.335Z,10.49
2023-01-29T14:59:53.041Z,10.49
2023-01-29T15:02:24.322Z,10.49
2023-01-29T15:04:55.152Z,10.43
2023-01-29T15:07:58.387Z,10.31
2023-01-29T15:10:39.568Z,10.23
2023-01-29T15:13:26.744Z,10.09
2023-01-29T15:15:59.885Z,10.06
2023-01-29T15:18:45.660Z,10.01
2023-01-29T15:21:17.338Z,9.96
2023-01-29T15:23:44.535Z,10.00
2023-01-29T15:26:18.067Z,9.97
2023-01-29T15:28:54.851Z,9.98
2023-01-29T15:31:25.855Z,9.99
2023-01-29T15:33:55.346Z,9.98
2023-01-29T15:36:30.854Z,9.92
2023-01-29T15:39:26.396Z,9.90
2023-01-29T15:42:11.497Z,9.88
2023-01-29T15:44:45.056Z,9.82
2023-01-29T15:47:12.734Z,9.80
2023-01-29T15:49:41.067Z,9.70
2023-01-29T15:52:29.639Z,9.69
2023-01-29T15:55:01.448Z,9.66
2023-01-29T15:57:33.537Z,9.56
2023-01-29T16:00:00.201Z,9.56
2023-01-29T16:02:35.619Z,9.52
2023-01-29T16:05:03.593Z,9.46
2023-01-29T16:07:30.511Z,9.41
2023-01-29T16:09:58.453Z,9.35
2023-01-29T16:12:25.176Z,9.30
2023-01-29T16:14:52.408Z,9.25
2023-01-29T16:17:32.442Z,9.13
2023-01-29T16:20:00.353Z,9.11
2023-01-29T16:22:32.625Z,9.04
2023-01-29T16:25:07.609Z,8.93
2023-01-29T16:27:34.907Z,8.90
2023-01-29T16:30:01.757Z,8.84
2023-01-29T16:32:30.272Z,8.78
2023-01-29T16:34:59.688Z,8.72
2023-01-29T16:37:33.404Z,8.61
2023-01-29T16:39:59.992Z,8.59
2023-01-29T16:42:27.547Z,8.56
2023-01-29T16:45:01.162Z,8.49
2023-01-29T16:47:27.569Z,8.46
2023-01-29T16:49:59.873Z,8.42
2023-01-29T16:52:34.668Z,8.36
2023-01-29T16:55:11.434Z,8.32
2023-01-29T16:57:39.858Z,8.27
2023-01-29T17:00:18.445Z,8.19
2023-01-29T17:02:44.978Z,8.19
2023-01-29T17:05:26.032Z,8.15
2023-01-29T17:07:55.462Z,8.13
2023-01-29T17:10:22.027Z,8.09
2023-01-29T17:12:56.151Z,8.06
2023-01-29T17:15:43.601Z,8.00
2023-01-29T17:18:20.144Z,7.97
2023-01-29T17:20:47.402Z,7.94
2023-01-29T17:23:14.123Z,7.90
2023-01-29T17:25:40.956Z,7.88
2023-01-29T17:28:07.711Z,7.84
2023-01-29T17:30:35.235Z,7.82
2023-01-29T17:33:01.718Z,7.81
2023-01-29T17:35:28.574Z,7.79
2023-01-29T17:37:55.056Z,7.76
2023-01-29T17:40:37.533Z,7.73
2023-01-29T17:43:03.994Z,7.68
2023-01-29T17:45:30.464Z,7.67
2023-01-29T17:47:56.946Z,7.64
2023-01-29T17:50:27.019Z,7.59
2023-01-29T17:52:53.512Z,7.60
2023-01-29T17:55:20.279Z,7.58
2023-01-29T17:57:46.894Z,7.56
2023-01-29T18:00:20.896Z,7.54
2023-01-29T18:02:47.477Z,7.53
2023-01-29T18:05:14.854Z,7.52
2023-01-29T18:07:43.436Z,7.51
2023-01-29T18:10:15.461Z,7.50
2023-01-29T18:12:41.973Z,7.48
2023-01-29T18:15:09.417Z,7.48
2023-01-29T18:17:36.191Z,7.46
2023-01-29T18:20:02.749Z,7.46
2023-01-29T18:22:29.281Z,7.42
2023-01-29T18:24:55.693Z,7.39
2023-01-29T18:27:22.131Z,7.38
2023-01-29T18:29:48.590Z,7.36
2023-01-29T18:32:15.050Z,7.33
2023-01-29T18:34:41.595Z,7.31
2023-01-29T18:37:08.069Z,7.27
2023-01-29T18:39:34.491Z,7.24
2023-01-29T18:42:00.980Z,7.22
2023-01-29T18:44:27.413Z,7.21
2023-01-29T18:46:53.880Z,7.19
2023-01-29T18:49:20.467Z,7.16
2023-01-29T18:51:46.911Z,7.15
2023-01-29T18:54:13.336Z,7.12
2023-01-29T18:57:11.614Z,7.11
2023-01-29T18:59:26.268Z,7.07
2023-01-29T19:01:52.759Z,7.07
2023-01-29T19:04:19.320Z,7.04
2023-01-29T19:06:46.923Z,7.05
2023-01-29T19:09:13.504Z,7.04
2023-01-29T19:11:42.529Z,7.03
2023-01-29T19:14:09.050Z,6.98
2023-01-29T19:16:35.469Z,6.98
2023-01-29T19:19:01.957Z,6.95
2023-01-29T19:21:28.415Z,6.92
2023-01-29T19:23:54.866Z,6.88
2023-01-29T19:26:21.776Z,6.86
2023-01-29T19:28:48.283Z,6.84
2023-01-29T19:31:14.898Z,6.83
2023-01-29T19:33:41.356Z,6.79
2023-01-29T19:36:08.224Z,6.80
2023-01-29T19:38:34.710Z,6.78
2023-01-29T19:41:01.201Z,6.78
2023-01-29T19:43:31.918Z,6.77
2023-01-29T19:46:00.330Z,6.75
2023-01-29T19:48:27.445Z,6.73
2023-01-29T19:50:59.101Z,6.68
2023-01-29T19:53:27.283Z,6.70
2023-01-29T19:56:01.990Z,6.66
2023-01-29T19:58:29.003Z,6.64
2023-01-29T20:01:03.919Z,6.63
2023-01-29T20:03:31.068Z,6.57
2023-01-29T20:06:06.882Z,6.55
2023-01-29T20:08:33.992Z,6.54
2023-01-29T20:11:00.743Z,6.49
2023-01-29T20:13:27.854Z,6.47
2023-01-29T20:15:55.626Z,6.39
2023-01-29T20:18:22.170Z,6.40
2023-01-29T20:20:50.483Z,6.36
2023-01-29T20:23:31.837Z,6.32
2023-01-29T20:26:04.023Z,6.27
2023-01-29T20:28:30.628Z,6.26
2023-01-29T20:30:57.217Z,6.23
2023-01-29T20:33:24.057Z,6.21
2023-01-29T20:35:58.569Z,6.15
2023-01-29T20:38:25.603Z,6.17
2023-01-29T20:40:52.040Z,6.16
2023-01-29T20:43:18.532Z,6.15
2023-01-29T20:45:45.053Z,6.13
2023-01-29T20:48:11.549Z,6.12
2023-01-29T20:50:38.041Z,6.09
2023-01-29T20:53:04.579Z,6.08
2023-01-29T20:55:31.210Z,6.06
2023-01-29T20:58:05.474Z,6.04
2023-01-29T21:00:32.557Z,6.02
2023-01-29T21:02:59.034Z,6.00
2023-01-29T21:05:25.763Z,5.98
2023-01-29T21:07:52.190Z,5.97
2023-01-29T21:10:19.018Z,5.95
2023-01-29T21:12:45.655Z,5.96
2023-01-29T21:15:12.246Z,5.95
2023-01-29T21:17:38.713Z,5.93
2023-01-29T21:20:05.679Z,5.95
2023-01-29T21:22:32.162Z,5.95
2023-01-29T21:24:58.578Z,5.95
2023-01-29T21:27:25.537Z,5.96
2023-01-29T21:29:52.048Z,5.98
2023-01-29T21:32:18.486Z,6.00
2023-01-29T21:34:44.895Z,6.04
2023-01-29T21:37:11.356Z,6.06
2023-01-29T21:39:37.793Z,6.06
2023-01-29T21:42:04.549Z,6.06
2023-01-29T21:44:33.546Z,6.04
2023-01-29T21:47:00.430Z,6.04
2023-01-29T21:49:27.195Z,6.02
2023-01-29T21:51:53.717Z,6.01
2023-01-29T21:54:20.251Z,5.99
2023-01-29T21:56:46.693Z,5.98
2023-01-29T21:59:13.208Z,5.98
2023-01-29T22:01:39.690Z,5.96
2023-01-29T22:04:06.198Z,5.97
2023-01-29T22:06:32.686Z,5.97
2023-01-29T22:08:59.109Z,5.99
2023-01-29T22:11:25.887Z,5.99
2023-01-29T22:13:52.349Z,5.99
2023-01-29T22:16:18.786Z,6.00
2023-01-29T22:18:45.203Z,6.00
2023-01-29T22:21:11.680Z,5.99
2023-01-29T22:23:38.107Z,5.98
2023-01-29T22:26:06.720Z,5.95
2023-01-29T22:28:33.183Z,5.94
2023-01-29T22:31:03.390Z,5.92
2023-01-29T22:33:30.232Z,5.92
2023-01-29T22:35:56.956Z,5.91
2023-01-29T22:38:23.743Z,5.90
2023-01-29T22:40:54.619Z,5.87
2023-01-29T22:43:21.817Z,5.87
2023-01-29T22:45:48.395Z,5.85
2023-01-29T22:48:15.356Z,5.85
2023-01-29T22:50:41.880Z,5.85
2023-01-29T22:53:08.785Z,5.85
2023-01-29T22:55:35.226Z,5.86
2023-01-29T22:58:01.686Z,5.86
2023-01-29T23:00:28.097Z,5.87
2023-01-29T23:02:54.525Z,5.87
2023-01-29T23:05:20.959Z,5.87
2023-01-29T23:07:47.413Z,5.87
2023-01-29T23:10:14.636Z,5.85
2023-01-29T23:12:41.368Z,5.85
2023-01-29T23:15:08.053Z,5.85
2023-01-29T23:17:34.522Z,5.87
2023-01-29T23:20:00.973Z,5.90
2023-01-29T23:22:27.440Z,5.93
2023-01-29T23:24:53.870Z,5.97
2023-01-29T23:27:20.375Z,6.01
2023-01-29T23:29:48.406Z,6.05
2023-01-29T23:32:17.460Z,6.06
2023-01-29T23:34:43.921Z,6.15
2023-01-29T23:37:10.466Z,6.22
2023-01-29T23:39:36.951Z,6.27
2023-01-29T23:42:03.745Z,6.30
2023-01-29T23:44:30.183Z,6.35
2023-01-29T23:46:56.721Z,6.37
2023-01-29T23:49:23.274Z,6.38
2023-01-29T23:51:50.792Z,6.39
2023-01-29T23:54:17.815Z,6.38
2023-01-29T23:56:44.814Z,6.40
2023-01-29T23:59:11.379Z,6.40
